createdAt,value
2019-02-22T00:00:53.278Z,91.60
2019-02-22T00:03:21.991Z,91.59
2019-02-22T00:05:50.406Z,91.57
2019-02-22T00:08:18.824Z,91.58
2019-02-22T00:10:47.240Z,91.52
2019-02-22T00:13:18.651Z,91.52
2019-02-22T00:15:47.060Z,91.46
2019-02-22T00:18:15.500Z,91.47
2019-02-22T00:20:43.948Z,91.51
2019-02-22T00:23:12.389Z,91.50
2019-02-22T00:25:40.803Z,91.40
2019-02-22T00:28:09.234Z,91.39
2019-02-22T00:30:37.648Z,91.33
2019-02-22T00:33:06.435Z,91.34
2019-02-22T00:35:34.860Z,91.29
2019-02-22T00:38:03.265Z,91.29
2019-02-22T00:40:31.976Z,91.12
2019-02-22T00:43:00.396Z,91.13
2019-02-22T00:45:28.820Z,91.13
2019-02-22T00:47:57.647Z,91.11
2019-02-22T00:50:26.059Z,91.08
2019-02-22T00:52:54.469Z,90.99
2019-02-22T00:55:22.900Z,90.98
2019-02-22T00:57:51.329Z,90.96
2019-02-22T01:00:19.752Z,90.85
2019-02-22T01:02:48.167Z,90.80
2019-02-22T01:05:16.898Z,90.67
2019-02-22T01:07:45.582Z,90.67
2019-02-22T01:10:14.014Z,90.64
2019-02-22T01:12:42.427Z,90.61
2019-02-22T01:15:11.228Z,90.57
2019-02-22T01:17:39.638Z,90.57
2019-02-22T01:20:08.050Z,90.51
2019-02-22T01:22:36.483Z,90.23
2019-02-22T01:25:05.538Z,90.25
2019-02-22T01:27:33.948Z,90.29
2019-02-22T01:30:02.373Z,90.38
2019-02-22T01:32:31.099Z,90.37
2019-02-22T01:34:59.519Z,90.29
2019-02-22T01:37:27.938Z,90.06
2019-02-22T01:39:56.370Z,89.99
2019-02-22T01:42:25.131Z,89.89
2019-02-22T01:44:53.541Z,89.86
2019-02-22T01:47:21.979Z,89.75
2019-02-22T01:49:50.385Z,89.80
2019-02-22T01:52:18.818Z,89.81
2019-02-22T01:54:47.228Z,89.79
2019-02-22T01:57:15.942Z,89.78
2019-02-22T01:59:44.355Z,89.73
2019-02-22T02:02:12.768Z,89.57
2019-02-22T02:04:41.181Z,89.56
2019-02-22T02:07:09.602Z,89.53
2019-02-22T02:09:38.003Z,89.66
2019-02-22T02:12:06.696Z,89.56
2019-02-22T02:14:35.113Z,89.45
2019-02-22T02:17:03.528Z,89.44
2019-02-22T02:19:31.932Z,89.38
2019-02-22T02:22:00.355Z,89.33
2019-02-22T02:24:28.754Z,89.33
2019-02-22T02:26:57.181Z,89.34
2019-02-22T02:29:25.606Z,89.35
2019-02-22T02:31:54.019Z,89.32
2019-02-22T02:34:22.424Z,89.44
2019-02-22T02:36:50.837Z,89.41
2019-02-22T02:39:19.245Z,89.58
2019-02-22T02:41:47.971Z,89.62
2019-02-22T02:44:16.383Z,89.63
2019-02-22T02:46:44.795Z,89.77
2019-02-22T02:49:13.219Z,89.84
2019-02-22T02:51:42.093Z,89.85
2019-02-22T02:54:10.513Z,89.87
2019-02-22T02:56:38.912Z,89.88
2019-02-22T02:59:07.327Z,89.88
2019-02-22T03:01:35.733Z,89.85
2019-02-22T03:04:07.981Z,89.82
2019-02-22T03:06:38.058Z,89.78
2019-02-22T03:09:08.786Z,89.80
2019-02-22T03:11:37.191Z,89.77
2019-02-22T03:14:05.609Z,89.82
2019-02-22T03:16:34.032Z,89.84
2019-02-22T03:19:02.438Z,89.84
2019-02-22T03:21:30.855Z,89.83
2019-02-22T03:23:59.291Z,89.82
2019-02-22T03:26:28.009Z,89.84
2019-02-22T03:28:56.407Z,89.82
2019-02-22T03:31:25.276Z,89.78
2019-02-22T03:33:53.686Z,89.74
2019-02-22T03:36:22.350Z,89.61
2019-02-22T03:38:51.127Z,89.59
2019-02-22T03:41:31.962Z,89.62
2019-02-22T03:43:50.044Z,89.60
2019-02-22T03:46:18.455Z,89.55
2019-02-22T03:48:46.859Z,89.51
2019-02-22T03:51:15.311Z,89.50
2019-02-22T03:53:45.364Z,89.47
2019-02-22T03:56:13.790Z,89.41
2019-02-22T03:58:42.459Z,89.37
2019-02-22T04:01:10.885Z,89.32
2019-02-22T04:03:39.284Z,89.28
2019-02-22T04:06:07.714Z,89.25
2019-02-22T04:08:36.115Z,89.28
2019-02-22T04:11:04.964Z,89.26
2019-02-22T04:13:33.849Z,89.23
2019-02-22T04:16:02.269Z,89.12
2019-02-22T04:18:31.020Z,89.00
2019-02-22T04:20:59.439Z,88.78
2019-02-22T04:23:28.292Z,88.53
2019-02-22T04:25:56.843Z,87.90
2019-02-22T04:28:25.200Z,87.78
2019-02-22T04:30:53.609Z,87.55
2019-02-22T04:33:22.027Z,87.43
2019-02-22T04:35:50.702Z,87.39
2019-02-22T04:38:19.118Z,87.25
2019-02-22T04:40:47.515Z,86.89
2019-02-22T04:43:15.936Z,86.96
2019-02-22T04:45:44.328Z,86.69
2019-02-22T04:48:12.739Z,86.62
2019-02-22T04:50:41.213Z,86.44
2019-02-22T04:53:09.619Z,85.74
2019-02-22T04:55:38.024Z,85.92
2019-02-22T04:58:06.435Z,85.51
2019-02-22T05:00:35.185Z,85.15
2019-02-22T05:03:03.890Z,85.34
2019-02-22T05:05:32.286Z,85.49
2019-02-22T05:08:00.708Z,85.51
2019-02-22T05:10:29.129Z,85.55
2019-02-22T05:12:57.809Z,85.62
2019-02-22T05:15:26.216Z,85.71
2019-02-22T05:17:54.630Z,85.65
2019-02-22T05:20:23.029Z,85.51
2019-02-22T05:23:03.005Z,85.28
2019-02-22T05:25:21.555Z,85.48
2019-02-22T05:27:49.969Z,85.44
2019-02-22T05:30:18.368Z,85.11
2019-02-22T05:32:46.788Z,84.95
2019-02-22T05:35:15.192Z,85.13
2019-02-22T05:37:43.602Z,85.18
2019-02-22T05:40:12.004Z,84.58
2019-02-22T05:42:40.418Z,84.77
2019-02-22T05:45:08.900Z,85.05
2019-02-22T05:47:37.682Z,85.01
2019-02-22T05:50:06.453Z,84.96
2019-02-22T05:52:34.937Z,84.87
2019-02-22T05:55:03.343Z,85.07
2019-02-22T05:57:31.751Z,85.01
2019-02-22T06:00:00.343Z,85.01
2019-02-22T06:02:29.073Z,85.09
2019-02-22T06:04:57.471Z,85.02
2019-02-22T06:07:25.881Z,85.21
2019-02-22T06:09:54.308Z,84.92
2019-02-22T06:12:33.912Z,84.86
2019-02-22T06:14:53.223Z,84.63
2019-02-22T06:17:21.622Z,84.67
2019-02-22T06:19:50.302Z,84.20
2019-02-22T06:22:29.021Z,83.88
2019-02-22T06:24:49.398Z,83.78
2019-02-22T06:27:17.811Z,84.22
2019-02-22T06:29:52.213Z,84.28
2019-02-22T06:32:20.640Z,84.39
2019-02-22T06:34:49.054Z,84.50
2019-02-22T06:37:17.475Z,84.56
2019-02-22T06:39:45.900Z,84.54
2019-02-22T06:42:14.347Z,84.58
2019-02-22T06:44:42.711Z,84.39
2019-02-22T06:47:11.130Z,84.24
2019-02-22T06:49:39.838Z,84.18
2019-02-22T06:52:08.318Z,84.14
2019-02-22T06:54:36.727Z,84.21
2019-02-22T06:57:05.144Z,84.23
2019-02-22T06:59:33.549Z,84.19
2019-02-22T07:02:01.951Z,83.72
2019-02-22T07:04:30.727Z,83.18
2019-02-22T07:06:59.177Z,82.83
2019-02-22T07:09:27.582Z,83.00
2019-02-22T07:12:00.575Z,83.10
2019-02-22T07:14:28.998Z,83.28
2019-02-22T07:16:57.409Z,83.33
2019-02-22T07:55:09.632Z,83.44
2019-02-22T07:57:40.078Z,83.44
2019-02-22T08:00:14.004Z,83.86
2019-02-22T08:02:42.403Z,100.00
2019-02-22T08:09:57.039Z,84.17
2019-02-22T08:12:25.714Z,84.17
2019-02-22T08:15:31.390Z,83.86
2019-02-22T08:23:37.770Z,83.94
2019-02-22T08:26:06.485Z,100.00
2019-02-22T08:42:13.546Z,82.99
2019-02-22T08:44:42.231Z,82.99
2019-02-22T08:47:10.904Z,81.26
2019-02-22T08:49:39.594Z,80.72
2019-02-22T08:52:08.024Z,80.60
2019-02-22T08:54:46.577Z,80.75
2019-02-22T08:57:06.722Z,80.96
2019-02-22T08:59:35.125Z,81.01
2019-02-22T09:02:03.547Z,80.44
2019-02-22T09:04:31.950Z,79.80
2019-02-22T09:07:00.360Z,78.60
2019-02-22T09:09:28.769Z,78.86
2019-02-22T09:11:57.845Z,78.62
2019-02-22T09:14:26.401Z,78.10
2019-02-22T09:16:54.806Z,77.60
2019-02-22T09:19:23.205Z,77.97
2019-02-22T09:21:51.617Z,77.82
2019-02-22T09:24:20.016Z,77.36
2019-02-22T09:26:48.437Z,75.85
2019-02-22T09:29:16.825Z,76.73
2019-02-22T09:31:45.529Z,76.06
2019-02-22T09:34:13.942Z,76.66
2019-02-22T09:36:42.340Z,76.88
2019-02-22T09:39:10.763Z,76.44
2019-02-22T09:41:39.165Z,76.27
2019-02-22T09:44:07.946Z,76.38
2019-02-22T09:46:36.349Z,76.59
2019-02-22T09:49:04.765Z,76.73
2019-02-22T09:51:33.163Z,76.68
2019-02-22T09:54:01.566Z,76.41
2019-02-22T09:56:30.225Z,76.23
2019-02-22T09:58:58.635Z,74.74
2019-02-22T10:01:27.391Z,74.99
2019-02-22T10:03:55.805Z,75.37
2019-02-22T10:06:24.241Z,75.10
2019-02-22T10:08:52.614Z,74.93
2019-02-22T10:11:21.312Z,73.87
2019-02-22T10:13:50.106Z,73.65
2019-02-22T10:16:18.516Z,73.22
2019-02-22T10:18:47.059Z,72.99
2019-02-22T10:21:15.511Z,72.56
2019-02-22T10:23:43.900Z,72.36
2019-02-22T10:26:12.308Z,72.93
2019-02-22T10:28:40.726Z,73.20
2019-02-22T10:31:09.141Z,73.39
2019-02-22T10:33:37.552Z,73.84
2019-02-22T10:36:05.956Z,74.47
2019-02-22T10:38:35.957Z,74.15
2019-02-22T10:41:04.541Z,73.94
2019-02-22T10:43:32.945Z,73.95
2019-02-22T10:46:01.361Z,73.85
2019-02-22T10:48:29.755Z,73.71
2019-02-22T10:50:59.418Z,73.44
2019-02-22T10:53:28.377Z,72.05
2019-02-22T10:55:57.158Z,72.63
2019-02-22T10:58:25.560Z,72.30
2019-02-22T11:00:54.319Z,70.41
2019-02-22T11:03:23.007Z,70.96
2019-02-22T11:05:51.489Z,69.58
2019-02-22T11:08:19.895Z,70.10
2019-02-22T11:10:48.657Z,68.96
2019-02-22T11:13:17.062Z,68.37
2019-02-22T11:15:45.479Z,68.30
2019-02-22T11:18:14.196Z,67.64
2019-02-22T11:20:42.603Z,67.53
2019-02-22T11:23:11.032Z,67.78
2019-02-22T11:25:39.445Z,67.95
2019-02-22T11:28:08.234Z,67.58
2019-02-22T11:30:36.636Z,67.11
2019-02-22T11:33:05.116Z,67.02
2019-02-22T11:35:33.518Z,67.11
2019-02-22T11:38:02.263Z,66.16
2019-02-22T11:40:30.664Z,65.43
2019-02-22T11:42:59.097Z,65.85
2019-02-22T11:45:27.506Z,66.24
2019-02-22T11:47:55.924Z,66.81
2019-02-22T11:50:24.326Z,66.87
2019-02-22T11:52:52.748Z,66.45
2019-02-22T11:55:21.547Z,66.00
2019-02-22T11:57:49.965Z,65.64
2019-02-22T12:00:23.295Z,65.53
2019-02-22T12:02:51.745Z,64.84
2019-02-22T12:05:20.109Z,65.55
2019-02-22T12:07:48.843Z,65.34
2019-02-22T12:10:17.545Z,65.56
2019-02-22T12:12:45.998Z,66.01
2019-02-22T12:15:14.833Z,65.84
2019-02-22T12:17:43.591Z,63.89
2019-02-22T12:20:12.599Z,63.51
2019-02-22T12:22:40.999Z,63.57
2019-02-22T12:25:11.545Z,63.83
2019-02-22T12:27:39.941Z,62.92
2019-02-22T12:30:19.065Z,62.58
2019-02-22T12:32:47.467Z,63.05
2019-02-22T12:35:15.883Z,61.31
2019-02-22T12:37:44.456Z,62.47
2019-02-22T12:40:13.240Z,62.16
2019-02-22T12:42:41.647Z,61.25
2019-02-22T12:45:11.611Z,61.43
2019-02-22T12:47:40.314Z,61.64
2019-02-22T12:50:12.433Z,60.38
2019-02-22T12:52:40.114Z,60.32
2019-02-22T12:55:11.603Z,60.78
2019-02-22T12:57:40.293Z,60.95
2019-02-22T13:00:19.317Z,60.67
2019-02-22T13:02:48.088Z,60.07
2019-02-22T13:05:22.090Z,59.73
2019-02-22T13:07:52.574Z,58.93
2019-02-22T13:10:21.019Z,58.07
2019-02-22T13:12:49.440Z,56.55
2019-02-22T13:15:18.197Z,58.35
2019-02-22T13:17:46.874Z,58.66
2019-02-22T13:20:15.342Z,58.21
2019-02-22T13:22:44.040Z,58.03
2019-02-22T13:25:12.465Z,56.65
2019-02-22T13:27:40.864Z,55.53
2019-02-22T13:30:14.671Z,53.59
2019-02-22T13:32:43.978Z,52.34
2019-02-22T13:35:12.377Z,52.29
2019-02-22T13:37:41.061Z,51.73
2019-02-22T13:40:15.548Z,52.19
2019-02-22T13:42:44.317Z,51.14
2019-02-22T13:45:25.538Z,51.24
2019-02-22T13:47:44.137Z,50.59
2019-02-22T13:50:19.850Z,50.35
2019-02-22T13:52:48.261Z,49.74
2019-02-22T13:55:16.688Z,49.69
2019-02-22T13:57:45.087Z,50.34
2019-02-22T14:00:18.868Z,48.88
2019-02-22T14:02:47.246Z,49.66
2019-02-22T14:05:15.739Z,48.61
2019-02-22T14:07:57.027Z,48.35
2019-02-22T14:10:26.087Z,49.15
2019-02-22T14:12:54.489Z,50.09
2019-02-22T14:15:22.920Z,49.38
2019-02-22T14:17:51.332Z,49.66
2019-02-22T14:20:20.111Z,49.60
2019-02-22T14:22:50.255Z,48.31
2019-02-22T14:25:18.730Z,48.89
2019-02-22T14:27:47.130Z,48.51
2019-02-22T14:30:18.220Z,47.95
2019-02-22T14:32:47.221Z,47.80
2019-02-22T14:35:15.710Z,47.15
2019-02-22T14:37:44.233Z,46.24
2019-02-22T14:40:13.602Z,46.73
2019-02-22T14:42:42.005Z,46.54
2019-02-22T14:45:14.739Z,46.50
2019-02-22T14:47:43.146Z,45.70
2019-02-22T14:50:16.943Z,45.78
2019-02-22T14:52:50.222Z,46.50
2019-02-22T14:55:16.445Z,46.64
2019-02-22T14:57:45.501Z,46.79
2019-02-22T15:00:16.717Z,47.06
2019-02-22T15:02:45.127Z,47.68
2019-02-22T15:05:16.626Z,46.88
2019-02-22T15:07:45.020Z,47.04
2019-02-22T15:10:13.566Z,47.26
2019-02-22T15:12:42.064Z,47.04
2019-02-22T15:15:18.873Z,46.45
2019-02-22T15:17:48.930Z,45.49
2019-02-22T15:20:17.658Z,45.28
2019-02-22T15:22:46.080Z,45.88
2019-02-22T15:25:16.232Z,46.07
2019-02-22T15:27:44.933Z,45.84
2019-02-22T15:30:15.173Z,46.08
2019-02-22T15:32:43.845Z,45.11
2019-02-22T15:35:14.474Z,45.80
2019-02-22T15:37:43.586Z,45.60
2019-02-22T15:40:13.591Z,44.89
2019-02-22T15:42:42.389Z,44.57
2019-02-22T15:45:18.478Z,43.82
2019-02-22T15:47:48.852Z,43.49
2019-02-22T15:50:18.343Z,43.28
2019-02-22T15:52:48.225Z,43.80
2019-02-22T15:55:16.665Z,43.52
2019-02-22T15:57:45.438Z,43.96
2019-02-22T16:00:25.843Z,45.09
2019-02-22T16:02:54.515Z,45.85
2019-02-22T16:05:24.631Z,46.78
2019-02-22T16:07:53.298Z,47.29
2019-02-22T16:10:21.707Z,47.50
2019-02-22T16:12:50.183Z,48.17
2019-02-22T16:15:18.954Z,48.69
2019-02-22T16:17:47.939Z,49.44
2019-02-22T16:20:17.861Z,50.13
2019-02-22T16:22:46.902Z,50.81
2019-02-22T16:25:19.474Z,51.23
2019-02-22T16:27:45.856Z,51.63
2019-02-22T16:30:17.740Z,52.01
2019-02-22T16:32:46.145Z,52.61
2019-02-22T16:35:15.181Z,53.01
2019-02-22T16:37:44.168Z,53.54
2019-02-22T16:40:13.218Z,54.21
2019-02-22T16:42:41.890Z,54.30
2019-02-22T16:45:12.152Z,54.62
2019-02-22T16:47:42.421Z,54.77
2019-02-22T16:50:12.341Z,55.10
2019-02-22T16:52:40.770Z,55.45
2019-02-22T16:55:12.116Z,55.73
2019-02-22T16:57:42.051Z,56.07
2019-02-22T17:00:12.822Z,56.43
2019-02-22T17:02:41.279Z,56.71
2019-02-22T17:05:12.021Z,57.10
2019-02-22T17:07:40.512Z,57.32
2019-02-22T17:10:11.324Z,57.51
2019-02-22T17:12:39.871Z,57.63
2019-02-22T17:15:11.295Z,57.91
2019-02-22T17:17:44.601Z,58.25
2019-02-22T17:20:15.338Z,58.56
2019-02-22T17:22:43.920Z,58.76
2019-02-22T17:25:17.168Z,59.00
2019-02-22T17:27:45.615Z,59.19
2019-02-22T17:30:16.495Z,59.23
2019-02-22T17:32:44.861Z,59.28
2019-02-22T17:35:13.339Z,59.23
2019-02-22T17:37:41.750Z,59.31
2019-02-22T17:40:13.412Z,59.30
2019-02-22T17:42:42.065Z,59.31
2019-02-22T17:45:10.758Z,59.36
2019-02-22T17:47:39.165Z,59.55
2019-02-22T17:50:09.616Z,59.67
2019-02-22T17:52:38.013Z,59.77
2019-02-22T17:55:08.366Z,59.93
2019-02-22T17:57:36.765Z,60.02
2019-02-22T18:00:15.632Z,60.04
2019-02-22T18:02:44.168Z,60.01
2019-02-22T18:05:12.620Z,60.17
2019-02-22T18:07:41.022Z,60.26
2019-02-22T18:10:10.774Z,60.25
2019-02-22T18:12:39.171Z,60.25
2019-02-22T18:15:17.220Z,60.35
2019-02-22T18:17:44.800Z,60.59
2019-02-22T18:20:13.250Z,60.69
2019-02-22T18:22:41.943Z,60.71
2019-02-22T18:25:10.477Z,60.84
2019-02-22T18:27:40.321Z,60.81
2019-02-22T18:30:17.825Z,60.78
2019-02-22T18:32:46.265Z,60.75
2019-02-22T18:35:15.011Z,60.93
2019-02-22T18:37:43.684Z,61.01
2019-02-22T18:40:15.235Z,61.11
2019-02-22T18:42:43.659Z,61.29
2019-02-22T18:45:12.077Z,61.36
2019-02-22T18:47:40.480Z,61.59
2019-02-22T18:50:11.965Z,61.54
2019-02-22T18:52:40.366Z,61.58
2019-02-22T18:55:10.129Z,61.59
2019-02-22T18:57:39.105Z,61.68
2019-02-22T19:00:20.315Z,61.75
2019-02-22T19:02:49.279Z,61.76
2019-02-22T19:05:17.748Z,61.91
2019-02-22T19:07:46.159Z,62.05
2019-02-22T19:10:15.593Z,61.54
2019-02-22T19:12:44.002Z,61.67
2019-02-22T19:15:18.215Z,61.50
2019-02-22T19:17:46.640Z,61.50
2019-02-22T19:20:21.580Z,61.36
2019-02-22T19:22:49.990Z,61.21
2019-02-22T19:25:18.422Z,61.21
2019-02-22T19:27:46.906Z,61.28
2019-02-22T19:30:20.100Z,61.36
2019-02-22T19:32:48.511Z,61.44
2019-02-22T19:35:16.904Z,61.41
2019-02-22T19:37:45.326Z,61.40
2019-02-22T19:40:16.361Z,61.36
2019-02-22T19:42:44.788Z,61.21
2019-02-22T19:45:13.230Z,61.27
2019-02-22T19:47:42.530Z,61.28
2019-02-22T19:50:14.529Z,61.26
2019-02-22T19:52:42.943Z,61.35
2019-02-22T19:55:19.143Z,61.47
2019-02-22T19:57:47.537Z,61.50
2019-02-22T20:00:19.571Z,61.68
2019-02-22T20:02:47.530Z,61.57
2019-02-22T20:05:16.155Z,61.63
2019-02-22T20:07:44.560Z,61.75
2019-02-22T20:10:18.103Z,61.86
2019-02-22T20:12:45.370Z,61.89
2019-02-22T20:15:18.081Z,62.01
2019-02-22T20:17:53.910Z,62.20
2019-02-22T20:20:18.021Z,62.09
2019-02-22T20:22:46.610Z,62.06
2019-02-22T20:25:15.097Z,62.31
2019-02-22T20:27:43.515Z,62.31
2019-02-22T20:30:14.459Z,62.47
2019-02-22T20:32:42.849Z,62.35
2019-02-22T20:35:13.813Z,62.44
2019-02-22T20:37:51.763Z,62.47
2019-02-22T20:40:12.345Z,62.44
2019-02-22T20:42:40.814Z,62.48
2019-02-22T20:45:11.385Z,62.47
2019-02-22T20:47:39.784Z,62.48
2019-02-22T20:50:11.297Z,62.58
2019-02-22T20:52:39.708Z,62.65
2019-02-22T20:55:11.875Z,62.63
2019-02-22T20:57:40.417Z,62.60
2019-02-22T21:00:15.292Z,62.67
2019-02-22T21:02:43.694Z,62.63
2019-02-22T21:05:12.158Z,62.68
2019-02-22T21:07:40.615Z,62.62
2019-02-22T21:10:11.719Z,62.59
2019-02-22T21:12:40.452Z,62.69
2019-02-22T21:15:11.324Z,62.68
2019-02-22T21:17:39.749Z,62.86
2019-02-22T21:20:10.917Z,62.85
2019-02-22T21:22:39.328Z,62.97
2019-02-22T21:25:09.877Z,62.99
2019-02-22T21:27:38.308Z,63.14
2019-02-22T21:30:09.813Z,62.99
2019-02-22T21:32:38.223Z,62.99
2019-02-22T21:35:08.164Z,62.81
2019-02-22T21:37:36.650Z,62.80
2019-02-22T21:40:07.400Z,62.67
2019-02-22T21:42:36.118Z,62.58
2019-02-22T21:45:06.658Z,62.72
2019-02-22T21:47:35.108Z,62.75
2019-02-22T21:50:04.459Z,62.95
2019-02-22T21:52:32.880Z,63.08
2019-02-22T21:55:01.280Z,63.02
2019-02-22T21:57:29.706Z,63.09
2019-02-22T21:59:58.118Z,63.21
2019-02-22T22:02:26.876Z,63.32
2019-02-22T22:04:55.329Z,63.41
2019-02-22T22:07:23.718Z,63.15
2019-02-22T22:09:52.198Z,63.18
2019-02-22T22:12:20.597Z,63.21
2019-02-22T22:14:49.014Z,63.35
2019-02-22T22:17:17.415Z,63.42
2019-02-22T22:19:45.887Z,63.52
2019-02-22T22:22:14.265Z,63.52
2019-02-22T22:24:43.047Z,63.22
2019-02-22T22:27:11.445Z,63.04
2019-02-22T22:29:39.853Z,63.08
2019-02-22T22:32:08.258Z,63.26
2019-02-22T22:34:36.665Z,63.41
2019-02-22T22:37:05.067Z,63.50
2019-02-22T22:39:33.482Z,63.46
2019-02-22T22:42:01.885Z,63.22
2019-02-22T22:44:30.317Z,63.26
2019-02-22T22:46:59.086Z,63.27
2019-02-22T22:49:27.518Z,63.47
2019-02-22T22:51:55.913Z,63.48
2019-02-22T22:54:24.320Z,63.49
2019-02-22T22:56:53.145Z,63.57
2019-02-22T22:59:21.544Z,63.51
2019-02-22T23:01:50.892Z,63.47
2019-02-22T23:04:19.302Z,63.32
2019-02-22T23:06:48.057Z,63.27
2019-02-22T23:09:20.740Z,63.37
2019-02-22T23:11:49.151Z,63.36
2019-02-22T23:14:17.634Z,63.55
2019-02-22T23:16:46.367Z,63.63
2019-02-22T23:19:14.847Z,63.99
2019-02-22T23:21:43.550Z,63.84
2019-02-22T23:24:11.950Z,63.87
2019-02-22T23:26:40.717Z,63.84
2019-02-22T23:29:09.402Z,63.89
2019-02-22T23:31:38.081Z,63.91
2019-02-22T23:34:06.469Z,63.82
2019-02-22T23:36:34.883Z,63.73
2019-02-22T23:39:03.984Z,63.52
2019-02-22T23:41:32.719Z,63.18
2019-02-22T23:44:01.120Z,62.87
2019-02-22T23:46:29.895Z,62.91
2019-02-22T23:48:58.295Z,62.85
2019-02-22T23:51:26.692Z,62.92
2019-02-22T23:53:55.099Z,62.92
2019-02-22T23:56:23.854Z,62.79
2019-02-22T23:58:52.271Z,62.72
